createdAt,value
2018-02-17T00:00:16.774Z,38.64
2018-02-17T00:01:16.680Z,38.58
2018-02-17T00:02:16.734Z,38.6
2018-02-17T00:03:16.681Z,38.56
2018-02-17T00:04:16.670Z,38.6
2018-02-17T00:05:16.674Z,38.7
2018-02-17T00:06:16.712Z,38.53
2018-02-17T00:07:16.698Z,38.58
2018-02-17T00:08:16.676Z,38.56
2018-02-17T00:09:16.663Z,38.65
2018-02-17T00:10:16.680Z,38.63
2018-02-17T00:11:16.708Z,38.6
2018-02-17T00:12:16.677Z,38.59
2018-02-17T00:13:16.778Z,38.57
2018-02-17T00:14:16.694Z,38.6
2018-02-17T00:15:16.671Z,38.71
2018-02-17T00:16:16.782Z,38.68
2018-02-17T00:17:16.680Z,38.67
2018-02-17T00:18:16.721Z,38.72
2018-02-17T00:19:16.709Z,38.6
2018-02-17T00:20:16.742Z,38.57
2018-02-17T00:21:16.716Z,38.67
2018-02-17T00:22:16.764Z,38.54
2018-02-17T00:23:16.687Z,38.72
2018-02-17T00:24:16.677Z,38.7
2018-02-17T00:25:16.674Z,38.57
2018-02-17T00:26:16.666Z,38.69
2018-02-17T00:27:16.744Z,38.71
2018-02-17T00:28:16.736Z,38.66
2018-02-17T00:29:16.762Z,38.66
2018-02-17T00:30:16.709Z,38.77
2018-02-17T00:31:16.686Z,38.56
2018-02-17T00:32:16.718Z,38.7
2018-02-17T00:33:16.730Z,38.63
2018-02-17T00:34:16.721Z,38.67
2018-02-17T00:35:16.687Z,38.6
2018-02-17T00:36:16.792Z,38.61
2018-02-17T00:37:16.717Z,38.62
2018-02-17T00:38:16.695Z,38.55
2018-02-17T00:39:16.681Z,38.63
2018-02-17T00:40:16.686Z,38.64
2018-02-17T00:41:16.711Z,38.76
2018-02-17T00:42:16.806Z,38.7
2018-02-17T00:43:16.698Z,38.81
2018-02-17T00:44:16.689Z,38.7
2018-02-17T00:45:16.675Z,38.58
2018-02-17T00:46:16.713Z,38.69
2018-02-17T00:47:16.694Z,38.66
2018-02-17T00:48:16.696Z,38.46
2018-02-17T00:49:16.688Z,38.71
2018-02-17T00:50:16.732Z,38.64
2018-02-17T00:51:16.692Z,38.58
2018-02-17T00:52:16.705Z,38.54
2018-02-17T00:53:16.691Z,38.74
2018-02-17T00:54:16.784Z,38.67
2018-02-17T00:55:16.737Z,38.72
2018-02-17T00:56:16.759Z,38.59
2018-02-17T00:57:16.681Z,38.53
2018-02-17T00:58:16.689Z,38.65
2018-02-17T00:59:16.701Z,38.66
2018-02-17T01:00:16.692Z,38.7
2018-02-17T01:01:16.704Z,38.51
2018-02-17T01:02:16.694Z,38.69
2018-02-17T01:03:16.727Z,38.63
2018-02-17T01:04:16.687Z,38.62
2018-02-17T01:05:16.692Z,38.62
2018-02-17T01:06:16.686Z,38.63
2018-02-17T01:07:16.692Z,38.66
2018-02-17T01:08:16.767Z,38.66
2018-02-17T01:09:16.680Z,38.72
2018-02-17T01:10:16.800Z,38.7
2018-02-17T01:11:16.787Z,38.71
2018-02-17T01:12:16.723Z,38.67
2018-02-17T01:13:16.690Z,38.64
2018-02-17T01:14:16.693Z,38.66
2018-02-17T01:15:16.702Z,38.71
2018-02-17T01:16:16.743Z,38.78
2018-02-17T01:17:16.701Z,38.77
2018-02-17T01:18:16.743Z,38.6
2018-02-17T01:19:16.702Z,38.67
2018-02-17T01:20:16.748Z,38.65
2018-02-17T01:21:16.708Z,38.84
2018-02-17T01:22:16.696Z,38.65
2018-02-17T01:23:16.719Z,38.75
2018-02-17T01:24:16.690Z,38.71
2018-02-17T01:25:16.751Z,38.72
2018-02-17T01:26:16.776Z,38.66
2018-02-17T01:27:16.698Z,38.75
2018-02-17T01:28:16.690Z,38.71
2018-02-17T01:29:16.701Z,38.76
2018-02-17T01:30:16.690Z,38.74
2018-02-17T01:31:16.746Z,38.72
2018-02-17T01:32:16.710Z,38.75
2018-02-17T01:33:16.760Z,38.69
2018-02-17T01:34:16.730Z,38.72
2018-02-17T01:35:16.707Z,38.67
2018-02-17T01:36:16.683Z,38.85
2018-02-17T01:37:16.685Z,38.93
2018-02-17T01:38:16.698Z,38.81
2018-02-17T01:39:16.694Z,38.81
2018-02-17T01:40:16.692Z,38.87
2018-02-17T01:41:16.696Z,38.83
2018-02-17T01:42:16.719Z,38.73
2018-02-17T01:43:16.704Z,38.72
2018-02-17T01:44:16.691Z,38.75
2018-02-17T01:45:16.736Z,38.83
2018-02-17T01:46:16.697Z,38.76
2018-02-17T01:47:16.728Z,38.69
2018-02-17T01:48:16.692Z,38.73
2018-02-17T01:49:16.703Z,38.78
2018-02-17T01:50:16.683Z,38.98
2018-02-17T01:51:16.688Z,38.8
2018-02-17T01:52:16.705Z,38.68
2018-02-17T01:53:16.690Z,38.8
2018-02-17T01:54:16.680Z,38.69
2018-02-17T01:55:16.742Z,38.69
2018-02-17T01:56:16.736Z,38.76
2018-02-17T01:57:16.702Z,38.68
2018-02-17T01:58:16.693Z,38.76
2018-02-17T01:59:16.682Z,38.71
2018-02-17T02:00:16.699Z,38.79
2018-02-17T02:01:16.700Z,38.82
2018-02-17T02:02:16.687Z,38.65
2018-02-17T02:03:16.681Z,38.74
2018-02-17T02:04:16.723Z,38.72
2018-02-17T02:05:16.696Z,38.72
2018-02-17T02:06:16.684Z,38.83
2018-02-17T02:07:16.689Z,38.72
2018-02-17T02:08:16.689Z,38.74
2018-02-17T02:09:16.700Z,38.72
2018-02-17T02:10:16.689Z,38.77
2018-02-17T02:11:16.760Z,38.84
2018-02-17T02:12:16.706Z,38.87
2018-02-17T02:13:16.686Z,38.65
2018-02-17T02:14:16.694Z,38.84
2018-02-17T02:15:16.692Z,38.74
2018-02-17T02:16:16.685Z,38.75
2018-02-17T02:17:16.696Z,38.78
2018-02-17T02:18:16.687Z,38.71
2018-02-17T02:19:16.682Z,38.69
2018-02-17T02:20:16.690Z,38.78
2018-02-17T02:21:16.689Z,38.63
2018-02-17T02:22:16.708Z,38.72
2018-02-17T02:23:16.684Z,38.81
2018-02-17T02:24:16.696Z,38.88
2018-02-17T02:25:16.742Z,38.73
2018-02-17T02:26:16.683Z,38.73
2018-02-17T02:27:16.749Z,38.79
2018-02-17T02:28:16.680Z,38.77
2018-02-17T02:29:16.735Z,38.71
2018-02-17T02:30:16.757Z,38.77
2018-02-17T02:31:16.692Z,38.81
2018-02-17T02:32:16.712Z,38.75
2018-02-17T02:33:16.731Z,38.8
2018-02-17T02:34:16.700Z,38.83
2018-02-17T02:35:16.712Z,38.7
2018-02-17T02:36:16.683Z,38.75
2018-02-17T02:37:16.702Z,38.84
2018-02-17T02:38:16.682Z,38.92
2018-02-17T02:39:16.688Z,38.8
2018-02-17T02:40:16.691Z,38.71
2018-02-17T02:41:16.686Z,38.84
2018-02-17T02:42:16.710Z,38.71
2018-02-17T02:43:16.684Z,38.82
2018-02-17T02:44:16.707Z,38.75
2018-02-17T02:45:16.672Z,38.78
2018-02-17T02:46:16.669Z,38.84
2018-02-17T02:47:16.708Z,38.7
2018-02-17T02:48:16.742Z,38.74
2018-02-17T02:49:16.685Z,38.62
2018-02-17T02:50:16.675Z,38.83
2018-02-17T02:51:16.762Z,38.68
2018-02-17T02:52:16.729Z,38.71
2018-02-17T02:53:16.714Z,38.68
2018-02-17T02:54:16.683Z,38.82
2018-02-17T02:55:16.687Z,38.71
2018-02-17T02:56:16.698Z,38.72
2018-02-17T02:57:16.736Z,38.84
2018-02-17T02:58:16.684Z,38.69
2018-02-17T02:59:16.748Z,38.8
2018-02-17T03:00:16.682Z,38.79
2018-02-17T03:01:16.679Z,38.76
2018-02-17T03:02:16.682Z,38.75
2018-02-17T03:03:16.704Z,38.75
2018-02-17T03:04:16.701Z,38.76
2018-02-17T03:05:16.703Z,38.86
2018-02-17T03:06:16.668Z,38.78
2018-02-17T03:07:16.674Z,38.83
2018-02-17T03:08:16.673Z,38.8
2018-02-17T03:09:16.692Z,38.79
2018-02-17T03:10:16.667Z,38.71
2018-02-17T03:11:16.780Z,38.72
2018-02-17T03:12:16.739Z,38.86
2018-02-17T03:13:16.792Z,38.84
2018-02-17T03:14:16.678Z,38.7
2018-02-17T03:15:16.682Z,38.78
2018-02-17T03:16:16.690Z,38.84
2018-02-17T03:17:16.691Z,38.85
2018-02-17T03:18:16.663Z,38.73
2018-02-17T03:19:16.671Z,38.79
2018-02-17T03:20:16.670Z,38.85
2018-02-17T03:21:16.761Z,38.83
2018-02-17T03:22:16.703Z,38.75
2018-02-17T03:23:16.737Z,38.75
2018-02-17T03:24:16.667Z,38.75
2018-02-17T03:25:16.667Z,38.8
2018-02-17T03:26:16.673Z,38.79
2018-02-17T03:27:16.686Z,38.7
2018-02-17T03:28:16.672Z,38.89
2018-02-17T03:29:16.764Z,38.83
2018-02-17T03:30:16.669Z,38.77
2018-02-17T03:31:16.702Z,38.83
2018-02-17T03:32:16.691Z,38.82
2018-02-17T03:33:16.674Z,38.85
2018-02-17T03:34:16.697Z,38.79
2018-02-17T03:35:16.671Z,38.9
2018-02-17T03:36:16.662Z,38.81
2018-02-17T03:37:16.890Z,38.81
2018-02-17T03:38:16.668Z,38.85
2018-02-17T03:39:16.662Z,38.83
2018-02-17T03:40:16.681Z,38.8
2018-02-17T03:41:16.656Z,38.83
2018-02-17T03:42:16.689Z,38.88
2018-02-17T03:43:16.732Z,38.78
2018-02-17T03:44:16.696Z,38.74
2018-02-17T03:45:16.686Z,38.75
2018-02-17T03:46:16.656Z,38.77
2018-02-17T03:47:16.658Z,38.72
2018-02-17T03:48:16.687Z,38.78
2018-02-17T03:49:16.709Z,38.78
2018-02-17T03:50:16.717Z,38.83
2018-02-17T03:51:16.673Z,38.78
2018-02-17T03:52:16.674Z,38.82
2018-02-17T03:53:16.659Z,38.82
2018-02-17T03:54:16.691Z,38.67
2018-02-17T03:55:16.662Z,38.8
2018-02-17T03:56:16.678Z,38.78
2018-02-17T03:57:16.648Z,38.78
2018-02-17T03:58:16.673Z,38.75
2018-02-17T03:59:16.674Z,38.76
2018-02-17T04:00:16.705Z,38.8
2018-02-17T04:01:16.673Z,38.88
2018-02-17T04:02:16.663Z,38.74
2018-02-17T04:03:16.682Z,38.75
2018-02-17T04:04:16.679Z,38.79
2018-02-17T04:05:16.649Z,38.83
2018-02-17T04:06:16.652Z,38.82
2018-02-17T04:07:16.677Z,38.69
2018-02-17T04:08:16.648Z,38.8
2018-02-17T04:09:16.646Z,38.8
2018-02-17T04:10:16.644Z,38.81
2018-02-17T04:11:16.650Z,38.71
2018-02-17T04:12:16.731Z,38.76
2018-02-17T04:13:16.669Z,38.86
2018-02-17T04:14:16.651Z,38.91
2018-02-17T04:15:16.641Z,38.88
2018-02-17T04:16:16.643Z,38.87
2018-02-17T04:17:16.651Z,38.79
2018-02-17T04:18:16.650Z,38.79
2018-02-17T04:19:16.652Z,38.76
2018-02-17T04:20:16.673Z,38.73
2018-02-17T04:21:16.643Z,38.82
2018-02-17T04:22:16.652Z,38.88
2018-02-17T04:23:16.673Z,38.82
2018-02-17T04:24:16.643Z,38.75
2018-02-17T04:25:16.665Z,38.75
2018-02-17T04:26:16.663Z,38.83
2018-02-17T04:27:16.648Z,38.81
2018-02-17T04:28:16.663Z,38.83
2018-02-17T04:29:16.671Z,38.79
2018-02-17T04:30:16.638Z,38.81
2018-02-17T04:31:16.640Z,38.79
2018-02-17T04:32:16.662Z,38.84
2018-02-17T04:33:16.630Z,38.75
2018-02-17T04:34:16.668Z,38.78
2018-02-17T04:35:16.640Z,38.73
2018-02-17T04:36:16.625Z,38.81
2018-02-17T04:37:16.638Z,38.83
2018-02-17T04:38:16.634Z,38.75
2018-02-17T04:39:16.658Z,38.63
2018-02-17T04:40:16.638Z,38.76
2018-02-17T04:41:16.639Z,38.72
2018-02-17T04:42:16.625Z,38.8
2018-02-17T04:43:16.634Z,38.86
2018-02-17T04:44:16.637Z,38.79
2018-02-17T04:45:16.672Z,38.74
2018-02-17T04:46:16.639Z,38.79
2018-02-17T04:47:16.636Z,38.75
2018-02-17T04:48:16.715Z,38.7
2018-02-17T04:49:16.629Z,38.74
2018-02-17T04:50:16.632Z,38.78
2018-02-17T04:51:16.627Z,38.85
2018-02-17T04:52:16.623Z,38.8
2018-02-17T04:53:16.628Z,38.73
2018-02-17T04:54:16.623Z,38.71
2018-02-17T04:55:16.635Z,38.74
2018-02-17T04:56:16.670Z,38.75
2018-02-17T04:57:16.647Z,38.67
2018-02-17T04:58:16.621Z,38.81
2018-02-17T04:59:16.645Z,38.79
2018-02-17T05:00:16.623Z,38.69
2018-02-17T05:01:16.618Z,38.71
2018-02-17T05:02:16.617Z,38.82
2018-02-17T05:03:16.624Z,38.72
2018-02-17T05:04:16.921Z,38.68
2018-02-17T05:05:16.691Z,38.72
2018-02-17T05:06:16.632Z,38.73
2018-02-17T05:07:16.653Z,38.72
2018-02-17T05:08:16.662Z,38.66
2018-02-17T05:09:16.646Z,38.89
2018-02-17T05:10:16.631Z,38.81
2018-02-17T05:11:16.621Z,38.86
2018-02-17T05:12:16.772Z,38.8
2018-02-17T05:13:16.619Z,38.87
2018-02-17T05:14:16.618Z,38.95
2018-02-17T05:15:16.629Z,38.82
2018-02-17T05:16:16.619Z,38.75
2018-02-17T05:17:16.672Z,38.87
2018-02-17T05:18:16.657Z,38.67
2018-02-17T05:19:16.614Z,38.72
2018-02-17T05:20:16.618Z,38.82
2018-02-17T05:21:16.724Z,38.77
2018-02-17T05:22:16.668Z,38.66
2018-02-17T05:23:16.624Z,38.7
2018-02-17T05:24:16.603Z,38.73
2018-02-17T05:25:16.617Z,38.59
2018-02-17T05:26:16.618Z,38.46
2018-02-17T05:27:16.608Z,38.56
2018-02-17T05:28:16.888Z,38.62
2018-02-17T05:29:16.607Z,38.66
2018-02-17T05:30:16.787Z,38.59
2018-02-17T05:31:16.621Z,38.63
2018-02-17T05:32:16.605Z,38.52
2018-02-17T05:33:16.623Z,38.63
2018-02-17T05:34:16.655Z,38.59
2018-02-17T05:35:16.777Z,38.64
2018-02-17T05:36:16.681Z,38.7
2018-02-17T05:37:16.635Z,38.69
2018-02-17T05:38:16.757Z,38.79
2018-02-17T05:39:16.614Z,38.63
2018-02-17T05:40:16.595Z,38.59
2018-02-17T05:41:16.605Z,38.53
2018-02-17T05:42:16.615Z,38.7
2018-02-17T05:43:16.602Z,38.76
2018-02-17T05:44:16.612Z,38.67
2018-02-17T05:45:16.609Z,38.63
2018-02-17T05:46:16.588Z,38.65
2018-02-17T05:47:16.600Z,38.56
2018-02-17T05:48:16.747Z,38.73
2018-02-17T05:49:16.652Z,38.63
2018-02-17T05:50:16.602Z,38.65
2018-02-17T05:51:16.605Z,38.75
2018-02-17T05:52:16.602Z,38.62
2018-02-17T05:53:16.593Z,38.62
2018-02-17T05:54:16.589Z,38.71
2018-02-17T05:55:16.603Z,38.68
2018-02-17T05:56:16.602Z,38.69
2018-02-17T05:57:16.641Z,38.73
2018-02-17T05:58:16.624Z,38.53
2018-02-17T05:59:16.723Z,38.61
2018-02-17T06:00:16.603Z,38.66
2018-02-17T06:01:16.626Z,38.57
2018-02-17T06:02:16.599Z,38.66
2018-02-17T06:03:16.711Z,38.62
2018-02-17T06:04:16.595Z,38.58
2018-02-17T06:05:16.593Z,38.42
2018-02-17T06:06:16.595Z,38.6
2018-02-17T06:07:16.588Z,38.65
2018-02-17T06:08:16.588Z,38.62
2018-02-17T06:09:16.596Z,38.57
2018-02-17T06:10:16.701Z,38.54
2018-02-17T06:11:16.598Z,38.55
2018-02-17T06:12:16.585Z,38.5
2018-02-17T06:13:16.588Z,38.57
2018-02-17T06:14:16.580Z,38.55
2018-02-17T06:15:16.590Z,38.49
2018-02-17T06:16:16.580Z,38.48
2018-02-17T06:17:16.596Z,38.58
2018-02-17T06:18:16.585Z,38.52
2018-02-17T06:19:16.621Z,38.52
2018-02-17T06:20:16.590Z,38.53
2018-02-17T06:21:16.602Z,38.42
2018-02-17T06:22:16.583Z,38.46
2018-02-17T06:23:16.588Z,38.51
2018-02-17T06:24:16.579Z,38.48
2018-02-17T06:25:16.781Z,38.46
2018-02-17T06:26:16.582Z,38.52
2018-02-17T06:27:16.585Z,38.41
2018-02-17T06:28:16.597Z,38.47
2018-02-17T06:29:16.580Z,38.43
2018-02-17T06:30:16.569Z,38.5
2018-02-17T06:31:16.575Z,38.5
2018-02-17T06:32:16.690Z,38.51
2018-02-17T06:33:16.699Z,38.45
2018-02-17T06:34:16.631Z,38.53
2018-02-17T06:35:16.573Z,38.45
2018-02-17T06:36:16.574Z,38.43
2018-02-17T06:37:16.578Z,38.44
2018-02-17T06:38:16.937Z,38.37
2018-02-17T06:39:16.621Z,38.41
2018-02-17T06:40:16.587Z,38.43
2018-02-17T06:41:16.737Z,38.41
2018-02-17T06:42:16.621Z,38.4
2018-02-17T06:43:16.603Z,38.41
2018-02-17T06:44:16.566Z,38.35
2018-02-17T06:45:16.603Z,38.27
2018-02-17T06:46:16.567Z,38.35
2018-02-17T06:47:16.577Z,38.34
2018-02-17T06:48:16.586Z,38.34
2018-02-17T06:49:16.610Z,38.37
2018-02-17T06:50:16.575Z,38.46
2018-02-17T06:51:16.664Z,38.33
2018-02-17T06:52:16.578Z,38.35
2018-02-17T06:53:16.641Z,38.3
2018-02-17T06:54:16.593Z,38.31
2018-02-17T06:55:16.697Z,38.31
2018-02-17T06:56:16.699Z,38.38
2018-02-17T06:57:16.575Z,38.37
2018-02-17T06:58:16.565Z,38.41
2018-02-17T06:59:16.565Z,38.34
2018-02-17T07:00:16.572Z,38.32
2018-02-17T07:01:16.554Z,38.28
2018-02-17T07:02:16.660Z,38.33
2018-02-17T07:03:16.564Z,38.28
2018-02-17T07:04:16.730Z,38.32
2018-02-17T07:05:16.649Z,38.3
2018-02-17T07:06:16.596Z,38.29
2018-02-17T07:07:16.564Z,38.27
2018-02-17T07:08:16.569Z,38.23
2018-02-17T07:09:16.566Z,38.36
2018-02-17T07:10:16.577Z,38.29
2018-02-17T07:11:16.705Z,38.21
2018-02-17T07:12:16.762Z,38.3
2018-02-17T07:13:16.671Z,38.14
2018-02-17T07:14:16.559Z,38.31
2018-02-17T07:15:16.557Z,38.28
2018-02-17T07:16:16.563Z,38.22
2018-02-17T07:17:16.560Z,38.24
2018-02-17T07:18:16.561Z,38.26
2018-02-17T07:19:16.558Z,38.29
2018-02-17T07:20:16.573Z,38.12
2018-02-17T07:21:16.730Z,38.21
2018-02-17T07:22:16.556Z,38.24
2018-02-17T07:23:16.552Z,38.27
2018-02-17T07:24:16.571Z,38.11
2018-02-17T07:25:16.558Z,38.16
2018-02-17T07:26:16.579Z,38.18
2018-02-17T07:27:16.674Z,38.34
2018-02-17T07:28:16.579Z,38.23
2018-02-17T07:29:16.677Z,38.19
2018-02-17T07:30:16.645Z,38.15
2018-02-17T07:31:16.558Z,38.18
2018-02-17T07:32:16.957Z,38.23
2018-02-17T07:33:16.553Z,38.22
2018-02-17T07:34:16.558Z,38.15
2018-02-17T07:35:16.554Z,38.18
2018-02-17T07:36:16.589Z,38.21
2018-02-17T07:37:16.581Z,38.27
2018-02-17T07:38:16.554Z,38.09
2018-02-17T07:39:16.563Z,38.15
2018-02-17T07:40:16.555Z,38.17
2018-02-17T07:41:16.555Z,38.18
2018-02-17T07:42:16.575Z,38.18
2018-02-17T07:43:16.553Z,38.24
2018-02-17T07:44:16.543Z,38.11
2018-02-17T07:45:16.556Z,38.11
2018-02-17T07:46:16.545Z,38.15
2018-02-17T07:47:16.575Z,38.16
2018-02-17T07:48:16.547Z,38.1
2018-02-17T07:49:16.644Z,38.06
2018-02-17T07:50:16.582Z,38.17
2018-02-17T07:51:16.553Z,38.15
2018-02-17T07:52:16.553Z,38.12
2018-02-17T07:53:16.582Z,38.05
2018-02-17T07:54:16.660Z,38.04
2018-02-17T07:55:16.554Z,38.13
2018-02-17T07:56:16.548Z,38.1
2018-02-17T07:57:16.553Z,37.9
2018-02-17T07:58:16.571Z,38.07
2018-02-17T07:59:16.633Z,38.09
2018-02-17T08:00:16.556Z,38.11
2018-02-17T08:01:16.701Z,38.03
2018-02-17T08:02:16.397Z,38.17
2018-02-17T08:03:16.547Z,38.07
2018-02-17T08:04:16.699Z,38.01
2018-02-17T08:05:16.552Z,37.97
2018-02-17T08:06:16.552Z,38.04
2018-02-17T08:07:16.602Z,38
2018-02-17T08:08:16.550Z,38.02
2018-02-17T08:09:16.567Z,37.93
2018-02-17T08:10:16.663Z,38.08
2018-02-17T08:11:16.562Z,38.02
2018-02-17T08:12:16.534Z,38
2018-02-17T08:13:16.547Z,38.01
2018-02-17T08:14:16.539Z,38.04
2018-02-17T08:15:16.567Z,37.97
2018-02-17T08:16:16.622Z,37.98
2018-02-17T08:17:16.731Z,38.01
2018-02-17T08:18:16.567Z,37.96
2018-02-17T08:19:16.665Z,37.98
2018-02-17T08:20:16.632Z,38.04
2018-02-17T08:21:16.667Z,38.01
2018-02-17T08:22:16.556Z,37.97
2018-02-17T08:23:16.584Z,37.93
2018-02-17T08:24:16.549Z,38.05
2018-02-17T08:25:16.625Z,38.08
2018-02-17T08:26:16.624Z,38.01
2018-02-17T08:27:16.582Z,38
2018-02-17T08:28:16.599Z,37.93
2018-02-17T08:29:16.882Z,37.98
2018-02-17T08:30:16.553Z,37.93
2018-02-17T08:31:16.545Z,37.86
2018-02-17T08:32:16.574Z,37.99
2018-02-17T08:33:16.564Z,37.96
2018-02-17T08:34:16.533Z,37.96
2018-02-17T08:35:16.631Z,37.92
2018-02-17T08:36:16.546Z,37.96
2018-02-17T08:37:16.530Z,37.92
2018-02-17T08:38:16.875Z,37.97
2018-02-17T08:39:16.622Z,37.95
2018-02-17T08:40:16.580Z,37.92
2018-02-17T08:41:16.533Z,38.03
2018-02-17T08:42:16.630Z,37.92
2018-02-17T08:43:16.675Z,37.99
2018-02-17T08:44:16.559Z,37.89
2018-02-17T08:45:16.535Z,37.93
2018-02-17T08:46:16.728Z,37.88
2018-02-17T08:47:16.531Z,37.93
2018-02-17T08:48:16.556Z,37.89
2018-02-17T08:49:16.532Z,38.07
2018-02-17T08:50:16.545Z,37.86
2018-02-17T08:51:16.524Z,37.91
2018-02-17T08:52:16.538Z,37.95
2018-02-17T08:53:16.540Z,37.88
2018-02-17T08:54:16.671Z,37.93
2018-02-17T08:55:16.634Z,37.91
2018-02-17T08:56:16.533Z,37.93
2018-02-17T08:57:16.637Z,37.87
2018-02-17T08:58:16.544Z,37.91
2018-02-17T08:59:16.531Z,37.87
2018-02-17T09:00:16.531Z,37.88
2018-02-17T09:01:16.540Z,37.87
2018-02-17T09:02:16.519Z,37.93
2018-02-17T09:03:16.536Z,37.81
2018-02-17T09:04:16.529Z,37.92
2018-02-17T09:05:16.729Z,37.84
2018-02-17T09:06:16.571Z,37.88
2018-02-17T09:07:16.547Z,37.85
2018-02-17T09:08:16.528Z,37.8
2018-02-17T09:09:16.538Z,37.88
2018-02-17T09:10:16.723Z,37.9
2018-02-17T09:11:16.664Z,37.89
2018-02-17T09:12:16.516Z,37.87
2018-02-17T09:13:16.733Z,37.84
2018-02-17T09:14:16.656Z,37.85
2018-02-17T09:15:16.528Z,37.8
2018-02-17T09:16:16.518Z,37.82
2018-02-17T09:17:16.523Z,37.88
2018-02-17T09:18:16.656Z,37.76
2018-02-17T09:19:16.518Z,37.82
2018-02-17T09:20:16.520Z,37.85
2018-02-17T09:21:16.516Z,37.83
2018-02-17T09:22:16.514Z,37.79
2018-02-17T09:23:16.681Z,37.85
2018-02-17T09:24:16.557Z,37.86
2018-02-17T09:25:16.522Z,37.74
2018-02-17T09:26:16.613Z,37.73
2018-02-17T09:27:16.531Z,37.71
2018-02-17T09:28:16.525Z,37.85
2018-02-17T09:29:16.647Z,37.84
2018-02-17T09:30:16.569Z,37.79
2018-02-17T09:31:16.579Z,37.79
2018-02-17T09:32:16.571Z,37.76
2018-02-17T09:33:16.534Z,37.74
2018-02-17T09:34:16.750Z,37.67
2018-02-17T09:35:16.568Z,37.7
2018-02-17T09:36:16.535Z,37.82
2018-02-17T09:37:16.552Z,37.76
2018-02-17T09:38:16.519Z,37.78
2018-02-17T09:39:16.613Z,37.74
2018-02-17T09:40:16.528Z,37.81
2018-02-17T09:41:16.523Z,37.78
2018-02-17T09:42:16.637Z,37.75
2018-02-17T09:43:16.523Z,37.79
2018-02-17T09:44:16.622Z,37.74
2018-02-17T09:45:16.526Z,37.69
2018-02-17T09:46:16.505Z,37.75
2018-02-17T09:47:16.583Z,37.76
2018-02-17T09:48:16.539Z,37.79
2018-02-17T09:49:16.509Z,37.75
2018-02-17T09:50:16.558Z,37.74
2018-02-17T09:51:16.518Z,37.78
2018-02-17T09:52:16.507Z,37.72
2018-02-17T09:53:16.533Z,37.74
2018-02-17T09:54:16.514Z,37.79
2018-02-17T09:55:16.515Z,37.72
2018-02-17T09:56:16.501Z,37.82
2018-02-17T09:57:16.611Z,37.71
2018-02-17T09:58:16.526Z,37.91
2018-02-17T09:59:16.518Z,37.86
2018-02-17T10:00:16.529Z,37.88
2018-02-17T10:01:16.520Z,38.01
2018-02-17T10:02:16.528Z,38.18
2018-02-17T10:03:16.567Z,38.39
2018-02-17T10:04:16.512Z,38.44
2018-02-17T10:05:16.634Z,38.6
2018-02-17T10:06:16.510Z,38.68
2018-02-17T10:07:16.504Z,38.35
2018-02-17T10:08:16.511Z,38.47
2018-02-17T10:09:16.503Z,38.5
2018-02-17T10:10:16.617Z,38.85
2018-02-17T10:11:16.563Z,38.31
2018-02-17T10:12:16.495Z,38.22
2018-02-17T10:13:16.513Z,38.11
2018-02-17T10:14:16.511Z,38.09
2018-02-17T10:15:16.570Z,38
2018-02-17T10:16:16.639Z,38.05
2018-02-17T10:17:16.545Z,38.06
2018-02-17T10:18:16.541Z,38
2018-02-17T10:19:16.565Z,38.04
2018-02-17T10:20:16.572Z,38
2018-02-17T10:21:16.605Z,38
2018-02-17T10:22:16.621Z,37.93
2018-02-17T10:23:16.504Z,37.92
2018-02-17T10:24:16.552Z,37.97
2018-02-17T10:25:16.564Z,37.97
2018-02-17T10:26:16.524Z,37.98
2018-02-17T10:27:16.502Z,37.93
2018-02-17T10:28:16.494Z,37.91
2018-02-17T10:29:16.492Z,37.99
2018-02-17T10:30:16.503Z,38
2018-02-17T10:31:16.574Z,36.95
2018-02-17T10:32:16.586Z,35.45
2018-02-17T10:33:16.606Z,36.25
2018-02-17T10:34:16.504Z,36.45
2018-02-17T10:35:16.509Z,36.87
2018-02-17T10:36:16.520Z,37.14
2018-02-17T10:37:16.611Z,37
2018-02-17T10:38:16.586Z,37.13
2018-02-17T10:39:16.604Z,37.03
2018-02-17T10:40:16.515Z,37
2018-02-17T10:41:16.490Z,37
2018-02-17T10:42:16.541Z,37.13
2018-02-17T10:43:16.491Z,37.21
2018-02-17T10:44:16.485Z,37.44
2018-02-17T10:45:16.593Z,37.5
2018-02-17T10:46:16.488Z,37.53
2018-02-17T10:47:16.526Z,37.51
2018-02-17T10:48:16.515Z,37.44
2018-02-17T10:49:16.528Z,37.54
2018-02-17T10:50:16.495Z,37.58
2018-02-17T10:51:16.604Z,37.57
2018-02-17T10:52:16.477Z,37.66
2018-02-17T10:53:16.624Z,37.66
2018-02-17T10:54:16.532Z,37.83
2018-02-17T10:55:16.485Z,37.91
2018-02-17T10:56:16.488Z,37.33
2018-02-17T10:57:16.513Z,37.36
2018-02-17T10:58:16.515Z,37.33
2018-02-17T10:59:16.492Z,37.28
2018-02-17T11:00:16.500Z,37.27
2018-02-17T11:01:16.502Z,37.31
2018-02-17T11:02:16.485Z,37.3
2018-02-17T11:03:16.494Z,37.33
2018-02-17T11:04:16.497Z,37.39
2018-02-17T11:05:16.494Z,37.38
2018-02-17T11:06:16.511Z,37.08
2018-02-17T11:07:16.488Z,36.41
2018-02-17T11:08:16.488Z,36.11
2018-02-17T11:09:16.497Z,35.63
2018-02-17T11:10:16.744Z,35.85
2018-02-17T11:11:16.537Z,35.93
2018-02-17T11:12:16.570Z,35.77
2018-02-17T11:13:16.485Z,35.9
2018-02-17T11:14:16.583Z,36.07
2018-02-17T11:15:16.526Z,36.01
2018-02-17T11:16:16.491Z,36.32
2018-02-17T11:17:16.509Z,36.35
2018-02-17T11:18:16.575Z,36.06
2018-02-17T11:19:16.488Z,36.82
2018-02-17T11:20:16.492Z,36.95
2018-02-17T11:21:16.518Z,37.02
2018-02-17T11:22:16.489Z,37.14
2018-02-17T11:23:16.498Z,37.1
2018-02-17T11:24:16.478Z,37.13
2018-02-17T11:25:16.477Z,37.03
2018-02-17T11:26:16.537Z,37.13
2018-02-17T11:27:16.491Z,37.36
2018-02-17T11:28:16.474Z,37.27
2018-02-17T11:29:16.483Z,37.18
2018-02-17T11:30:16.494Z,37.38
2018-02-17T11:31:16.481Z,37.33
2018-02-17T11:32:16.490Z,37.28
2018-02-17T11:33:16.481Z,37.52
2018-02-17T11:34:16.529Z,37.39
2018-02-17T11:35:16.476Z,37.7
2018-02-17T11:36:16.498Z,37.72
2018-02-17T11:37:16.475Z,37.13
2018-02-17T11:38:16.489Z,37.13
2018-02-17T11:39:16.491Z,37.25
2018-02-17T11:40:16.479Z,37.27
2018-02-17T11:41:16.478Z,37.33
2018-02-17T11:42:16.474Z,37.21
2018-02-17T11:43:16.526Z,37.4
2018-02-17T11:44:16.499Z,37.29
2018-02-17T11:45:16.475Z,37.41
2018-02-17T11:46:16.616Z,37.32
2018-02-17T11:47:16.468Z,37.31
2018-02-17T11:48:16.465Z,37.41
2018-02-17T11:49:16.479Z,37.35
2018-02-17T11:50:16.465Z,37.4
2018-02-17T11:51:16.491Z,37.38
2018-02-17T11:52:16.473Z,37.73
2018-02-17T11:53:16.481Z,37.62
2018-02-17T11:54:16.477Z,37.68
2018-02-17T11:55:16.484Z,37.64
2018-02-17T11:56:16.507Z,37.8
2018-02-17T11:57:16.465Z,37.65
2018-02-17T11:58:16.473Z,37.59
2018-02-17T11:59:16.468Z,37.69
2018-02-17T12:00:16.500Z,37.78
2018-02-17T12:01:16.492Z,37.88
2018-02-17T12:02:16.481Z,37.73
2018-02-17T12:03:16.467Z,37.79
2018-02-17T12:04:16.520Z,37.72
2018-02-17T12:05:16.467Z,38.04
2018-02-17T12:06:16.481Z,37.77
2018-02-17T12:07:16.458Z,38.29
2018-02-17T12:08:16.504Z,37.79
2018-02-17T12:09:16.492Z,38.13
2018-02-17T12:10:16.483Z,37.66
2018-02-17T12:11:16.540Z,37.53
2018-02-17T12:12:16.482Z,37.74
2018-02-17T12:13:16.488Z,36.82
2018-02-17T12:14:16.512Z,36.81
2018-02-17T12:15:16.502Z,37.05
2018-02-17T12:16:16.493Z,37.31
2018-02-17T12:17:16.490Z,37.49
2018-02-17T12:18:16.479Z,37.53
2018-02-17T12:19:16.524Z,37.49
2018-02-17T12:20:16.488Z,37.63
2018-02-17T12:21:16.567Z,37.64
2018-02-17T12:22:16.483Z,37.56
2018-02-17T12:23:16.514Z,37.27
2018-02-17T12:24:16.498Z,37.45
2018-02-17T12:25:16.512Z,37.76
2018-02-17T12:26:16.480Z,37.94
2018-02-17T12:27:16.490Z,37.36
2018-02-17T12:28:16.546Z,37.68
2018-02-17T12:29:16.482Z,37.78
2018-02-17T12:30:16.480Z,37.63
2018-02-17T12:31:16.542Z,37.79
2018-02-17T12:32:16.492Z,37.73
2018-02-17T12:33:16.483Z,37.8
2018-02-17T12:34:16.520Z,37.74
2018-02-17T12:35:16.480Z,37.7
2018-02-17T12:36:16.482Z,37.63
2018-02-17T12:37:16.472Z,37.64
2018-02-17T12:38:16.490Z,37.77
2018-02-17T12:39:16.485Z,37.74
2018-02-17T12:40:16.489Z,37.68
2018-02-17T12:41:16.488Z,37.66
2018-02-17T12:42:16.484Z,37.52
2018-02-17T12:43:16.478Z,37.7
2018-02-17T12:44:16.480Z,37.55
2018-02-17T12:45:16.477Z,37.64
2018-02-17T12:46:16.485Z,37.73
2018-02-17T12:47:16.474Z,37.58
2018-02-17T12:48:16.489Z,37.64
2018-02-17T12:49:16.472Z,37.56
2018-02-17T12:50:16.470Z,37.74
2018-02-17T12:51:16.486Z,37.75
2018-02-17T12:52:16.470Z,37.7
2018-02-17T12:53:16.471Z,37.77
2018-02-17T12:54:16.519Z,37.74
2018-02-17T12:55:16.521Z,37.73